Terminal Aerodrome Forecast
Issued by NWS

Home | Current Version | Previous Version | Text Only | Print | Product List | Glossary On
Versions: 1 2 3 4 5 6 7 8 9 10 11 12
000
FTUS45 KSLC 181740
TAFBCE
TAF
KBCE 181740Z 1818/1918 17009KT P6SM BKN200
     FM190200 21006KT P6SM BKN200
     FM191600 18012G19KT P6SM SCT100 BKN200=

USA.gov is the U.S. government's official web portal to all federal, state and local government web resources and services.